Westwood Village, Idaho
Current Conditions -  °F | °C
As of 10:53 AM on Friday 21 Nov 2014 (Local Time) from KPIH Reporting Station
Few Clouds Few Clouds  
Wind Chill: 31°   Ceiling: Unl
Heat Index: 31°   Visibility: 10mi
Dew Point: 26°   Wind: 0mph
Humidity: 82%   Direction: NA
Pressure: 30.05"   Gusts: NA
Location:  42.8976°N, 112.37°W
Report Text: KPIH 211753Z 00000KT 10SM FEW120 M01/M03 A3005 RMK AO2 SLP207 I6000 T10061033 10000 21089 53000
Loading
Personal Weather Stations






























Interactive Weather Map New forecast layout! Learn more

10-Day Weather Forecast

Advertisements
Track Severe Weather on mobile